Time;durP1;ratioP1;P1;durP2;ratioP2;P2;SDS_P1;SDS_P2;PMS_P1;PMS_P2;Temp;Humidity;BMP_temperature;BMP_pressure;BME280_temperature;BME280_humidity;BME280_pressure;Samples;Min_cycle;Max_cycle;Signal;HPM_P1;HPM_P2
2022/07/19 00:00:19;;;;;;;5.00;1.12;;;;;;;16.01;64.87;100872.72;1698986;84;21069;-60
2022/07/19 00:02:49;;;;;;;4.80;1.17;;;;;;;16.02;64.97;100873.03;1699249;84;21006;-60
2022/07/19 00:05:20;;;;;;;3.20;1.22;;;;;;;16.00;65.20;100864.65;1706843;82;21029;-61
2022/07/19 00:07:52;;;;;;;2.75;1.10;;;;;;;15.93;65.52;100867.45;1708367;83;21468;-59
2022/07/19 00:10:22;;;;;;;3.47;1.15;;;;;;;15.85;65.79;100869.09;1708571;84;21089;-60
2022/07/19 00:12:52;;;;;;;2.52;1.20;;;;;;;15.82;66.04;100869.00;1708595;84;21018;-59
2022/07/19 00:15:23;;;;;;;2.20;1.02;;;;;;;15.81;66.21;100866.45;1708418;83;21058;-60
2022/07/19 00:17:55;;;;;;;3.42;1.30;;;;;;;15.79;66.38;100863.06;1706537;84;20991;-58
2022/07/19 00:20:25;;;;;;;2.80;1.30;;;;;;;15.77;66.56;100865.20;1709897;84;21039;-60
2022/07/19 00:22:55;;;;;;;2.27;1.32;;;;;;;15.77;66.78;100866.59;1700041;84;21023;-60
2022/07/19 00:25:25;;;;;;;3.10;1.50;;;;;;;15.78;66.81;100862.75;1703529;84;21589;-59
2022/07/19 00:27:56;;;;;;;3.92;1.40;;;;;;;15.79;66.77;100865.30;1703539;84;21018;-61
2022/07/19 00:30:26;;;;;;;2.85;1.47;;;;;;;15.79;66.80;100861.69;1724099;82;21057;-60
2022/07/19 00:32:55;;;;;;;3.80;1.52;;;;;;;15.80;66.81;100860.62;1732958;83;21034;-60
2022/07/19 00:35:25;;;;;;;3.15;1.57;;;;;;;15.79;66.82;100857.01;1733022;83;21042;-60
2022/07/19 00:37:54;;;;;;;1.92;1.30;;;;;;;15.79;66.88;100852.86;1732931;83;21073;-60
2022/07/19 00:40:23;;;;;;;2.90;1.50;;;;;;;15.80;66.87;100853.17;1733052;83;20998;-61
2022/07/19 00:42:55;;;;;;;1.70;1.40;;;;;;;15.81;66.91;100856.78;1733161;83;21053;-59
2022/07/19 00:45:25;;;;;;;1.77;1.20;;;;;;;15.78;67.04;100851.70;1732984;83;21066;-60
2022/07/19 00:47:55;;;;;;;3.62;1.40;;;;;;;15.78;67.22;100859.99;1729722;83;21560;-59
2022/07/19 00:50:25;;;;;;;2.95;1.20;;;;;;;15.71;67.35;100857.80;1720225;83;21077;-60
2022/07/19 00:53:04;;;;;;;1.95;1.20;;;;;;;15.64;67.61;100851.45;1695796;84;21556;-59
2022/07/19 00:55:32;;;;;;;3.02;1.30;;;;;;;15.60;67.77;100861.22;1695659;84;21035;-59
2022/07/19 00:58:02;;;;;;;4.47;1.65;;;;;;;15.59;67.95;100848.47;1695830;83;21107;-59
2022/07/19 01:00:34;;;;;;;3.72;1.35;;;;;;;15.58;68.09;100853.15;1695833;84;21066;-59
2022/07/19 01:03:03;;;;;;;4.25;1.12;;;;;;;15.59;68.14;100847.94;1695758;84;21537;-60
2022/07/19 01:05:34;;;;;;;2.60;1.37;;;;;;;15.64;68.10;100851.45;1695836;84;21059;-61
2022/07/19 01:08:04;;;;;;;3.15;1.30;;;;;;;15.67;68.00;100848.26;1698161;83;21083;-59
2022/07/19 01:10:35;;;;;;;2.42;1.25;;;;;;;15.69;67.90;100844.73;1684175;83;21475;-59
2022/07/19 01:13:07;;;;;;;3.30;1.40;;;;;;;15.72;67.72;100843.77;1664022;86;21548;-60
2022/07/19 01:15:36;;;;;;;2.95;1.32;;;;;;;15.73;67.64;100841.84;1631664;88;21048;-62
2022/07/19 01:18:06;;;;;;;3.25;1.50;;;;;;;15.70;67.70;100843.14;1642397;86;21454;-61
2022/07/19 01:20:36;;;;;;;3.40;1.40;;;;;;;15.65;67.69;100840.72;1631750;88;21055;-61
2022/07/19 01:23:07;;;;;;;2.98;1.45;;;;;;;15.63;67.68;100840.94;1664118;86;21023;-61
2022/07/19 01:25:37;;;;;;;2.42;1.52;;;;;;;15.62;67.61;100834.25;1631687;88;21086;-61
2022/07/19 01:28:28;;;;;;;3.00;1.37;;;;;;;15.66;67.38;100839.12;1662166;86;21580;-60
2022/07/19 01:30:57;;;;;;;4.92;1.60;;;;;;;15.72;66.93;100833.24;1662229;84;21046;-59
2022/07/19 01:33:28;;;;;;;2.52;1.40;;;;;;;15.75;66.61;100832.27;1695748;84;21070;-59
2022/07/19 01:35:58;;;;;;;2.92;1.42;;;;;;;15.76;66.54;100835.88;1695750;84;21046;-59
2022/07/19 01:38:28;;;;;;;3.40;1.40;;;;;;;15.78;66.40;100832.36;1695531;84;21074;-60
2022/07/19 01:41:02;;;;;;;3.62;1.40;;;;;;;15.79;66.08;100835.44;1695682;84;21061;-60
2022/07/19 01:43:32;;;;;;;5.78;1.82;;;;;;;15.80;65.90;100832.45;1695416;84;21046;-60
2022/07/19 01:46:02;;;;;;;2.08;1.42;;;;;;;15.80;65.80;100835.75;1695395;84;21113;-60
2022/07/19 01:48:33;;;;;;;2.75;1.27;;;;;;;15.81;65.62;100841.59;1694686;83;21436;-60
2022/07/19 01:51:05;;;;;;;3.87;1.42;;;;;;;15.83;65.66;100840.84;1694040;84;21404;-58
2022/07/19 01:53:35;;;;;;;2.17;1.45;;;;;;;15.84;65.63;100836.47;1694253;85;21035;-59
2022/07/19 01:56:05;;;;;;;2.37;1.40;;;;;;;15.84;65.25;100839.23;1694043;85;21075;-60
2022/07/19 01:58:35;;;;;;;3.30;1.60;;;;;;;15.86;65.21;100840.39;1694014;85;21478;-61
2022/07/19 02:01:05;;;;;;;3.42;1.45;;;;;;;15.82;65.26;100846.89;1694291;85;21078;-60
2022/07/19 02:03:36;;;;;;;4.95;1.70;;;;;;;15.84;65.33;100841.99;1694025;85;21043;-60
2022/07/19 02:06:06;;;;;;;2.87;1.25;;;;;;;15.87;65.40;100846.77;1693948;85;21070;-59
2022/07/19 02:08:38;;;;;;;12.73;2.22;;;;;;;15.88;65.36;100839.63;1694834;83;21041;-60
2022/07/19 02:13:59;;;;;;;2.22;1.20;;;;;;;15.95;64.65;100841.82;1695393;85;21040;-60
2022/07/19 02:16:28;;;;;;;2.92;1.22;;;;;;;15.97;64.07;100849.36;1695040;82;21041;-60
2022/07/19 02:18:59;;;;;;;2.83;1.20;;;;;;;16.02;63.63;100842.62;1695036;85;21473;-59
2022/07/19 02:21:29;;;;;;;3.22;1.20;;;;;;;16.05;63.40;100839.41;1695070;82;21060;-59
2022/07/19 02:23:58;;;;;;;2.87;1.35;;;;;;;16.07;63.23;100835.89;1695079;83;21331;-61
2022/07/19 02:26:27;;;;;;;2.85;1.02;;;;;;;16.10;63.06;100840.13;1694954;82;21041;-60
2022/07/19 02:28:58;;;;;;;1.67;1.00;;;;;;;16.15;62.87;100841.69;1698627;82;21147;-60
2022/07/19 02:31:27;;;;;;;1.87;1.00;;;;;;;16.18;62.59;100837.94;1726882;82;21005;-61
2022/07/19 02:33:58;;;;;;;2.40;1.00;;;;;;;16.23;62.19;100845.56;1726777;83;21025;-60
2022/07/19 02:36:29;;;;;;;2.30;1.20;;;;;;;16.27;61.92;100845.99;1726971;83;21076;-60
2022/07/19 02:38:59;;;;;;;3.33;1.17;;;;;;;16.29;61.82;100852.14;1726900;83;21084;-60
2022/07/19 02:41:28;;;;;;;3.47;1.15;;;;;;;16.31;61.59;100851.38;1726637;83;20990;-60
2022/07/19 02:43:57;;;;;;;3.60;1.20;;;;;;;16.33;61.41;100845.09;1726903;83;21491;-60
2022/07/19 02:46:26;;;;;;;2.37;1.07;;;;;;;16.36;61.19;100848.80;1726812;83;21041;-59
2022/07/19 02:48:56;;;;;;;1.70;1.20;;;;;;;16.37;61.00;100843.57;1733762;83;21023;-61
2022/07/19 02:51:26;;;;;;;1.62;1.12;;;;;;;16.37;60.81;100834.73;1733962;83;21103;-60
2022/07/19 02:53:59;;;;;;;2.72;1.30;;;;;;;16.39;60.72;100833.98;1733597;83;21027;-59
2022/07/19 02:56:30;;;;;;;2.65;1.30;;;;;;;16.40;60.70;100834.83;1733846;83;21030;-59
2022/07/19 02:58:59;;;;;;;3.12;1.50;;;;;;;16.40;60.69;100832.91;1733946;83;21081;-60
2022/07/19 03:01:30;;;;;;;4.75;1.30;;;;;;;16.41;60.73;100834.59;1733749;83;21031;-60
2022/07/19 03:04:00;;;;;;;2.77;1.20;;;;;;;16.43;60.63;100834.38;1733750;83;21348;-59
2022/07/19 03:06:30;;;;;;;3.15;1.45;;;;;;;16.44;60.61;100837.45;1733141;81;21089;-59
2022/07/19 03:09:02;;;;;;;4.28;1.50;;;;;;;16.45;60.58;100835.84;1726881;83;20997;-60
2022/07/19 03:11:36;;;;;;;3.67;1.60;;;;;;;16.47;60.48;100838.38;1726633;83;21036;-60
2022/07/19 03:14:07;;;;;;;3.92;1.30;;;;;;;16.48;60.49;100835.92;1726750;83;21013;-60
2022/07/19 03:16:39;;;;;;;3.20;1.60;;;;;;;16.51;60.48;100831.86;1726711;83;21464;-59
2022/07/19 03:19:09;;;;;;;1.50;1.10;;;;;;;16.54;60.46;100828.64;1726792;83;21304;-59
2022/07/19 03:21:40;;;;;;;3.30;1.40;;;;;;;16.55;60.45;100829.80;1726812;83;21041;-59
2022/07/19 03:24:10;;;;;;;4.08;1.60;;;;;;;16.57;60.60;100832.34;1726824;83;21104;-60
2022/07/19 03:26:41;;;;;;;2.58;1.52;;;;;;;16.57;60.48;100828.19;1726479;83;21080;-60
2022/07/19 03:29:13;;;;;;;3.22;1.40;;;;;;;16.57;60.44;100826.80;1666948;84;21538;-61
2022/07/19 03:31:46;;;;;;;2.30;1.25;;;;;;;16.57;60.48;100825.42;1666443;86;21059;-60
2022/07/19 03:34:16;;;;;;;2.15;1.20;;;;;;;16.59;60.52;100821.36;1666380;86;21137;-60
2022/07/19 03:36:47;;;;;;;2.52;1.20;;;;;;;16.65;60.56;100826.02;1666541;86;21050;-59
2022/07/19 03:39:17;;;;;;;2.87;1.32;;;;;;;16.70;60.55;100822.02;1666727;86;21066;-59
2022/07/19 03:41:46;;;;;;;3.22;1.30;;;;;;;16.74;60.46;100821.88;1666548;86;21023;-60
2022/07/19 03:44:17;;;;;;;3.20;1.32;;;;;;;16.78;60.50;100820.88;1666697;86;21219;-60
2022/07/19 03:46:48;;;;;;;3.37;1.50;;;;;;;16.83;60.47;100821.05;1692924;82;21043;-60
2022/07/19 03:49:18;;;;;;;2.02;1.20;;;;;;;16.88;60.29;100829.52;1746740;82;21024;-60
2022/07/19 03:51:47;;;;;;;2.60;1.55;;;;;;;16.91;60.19;100826.85;1746709;82;21003;-60
2022/07/19 03:54:17;;;;;;;4.33;1.60;;;;;;;16.97;60.08;100835.09;1746629;82;21439;-61
2022/07/19 03:56:47;;;;;;;2.58;1.30;;;;;;;17.03;59.93;100829.17;1746445;82;21074;-60
2022/07/19 03:59:16;;;;;;;7.00;1.62;;;;;;;17.06;59.84;100828.71;1746493;82;21029;-59
2022/07/19 04:01:47;;;;;;;2.47;1.70;;;;;;;17.13;59.79;100828.64;1746454;82;21116;-60
2022/07/19 04:04:17;;;;;;;4.85;1.92;;;;;;;17.18;59.75;100831.02;1746390;82;21071;-61
2022/07/19 04:06:47;;;;;;;17.30;9.60;;;;;;;17.24;60.02;100832.87;1745695;82;21070;-59
2022/07/19 04:09:17;;;;;;;5.87;3.83;;;;;;;17.28;59.98;100829.09;1746513;82;21054;-59
2022/07/19 04:11:48;;;;;;;5.00;2.00;;;;;;;17.30;59.95;100827.79;1746462;82;21327;-59
2022/07/19 04:14:19;;;;;;;7.22;2.12;;;;;;;17.34;59.84;100826.78;1746479;82;21063;-59
2022/07/19 04:16:48;;;;;;;6.90;2.02;;;;;;;17.40;60.38;100826.70;1746783;82;21537;-60
2022/07/19 04:19:17;;;;;;;2.27;1.70;;;;;;;17.45;60.24;100826.00;1746374;82;21031;-58
2022/07/19 04:21:47;;;;;;;2.87;1.47;;;;;;;17.52;60.02;100826.77;1746472;82;21432;-60
2022/07/19 04:24:17;;;;;;;4.40;1.80;;;;;;;17.57;59.76;100823.33;1746491;82;21074;-60
2022/07/19 04:26:49;;;;;;;5.62;1.67;;;;;;;17.58;59.73;100829.17;1745597;82;21067;-59
2022/07/19 04:29:19;;;;;;;3.10;1.55;;;;;;;17.59;59.62;100820.63;1746165;82;21077;-60
2022/07/19 04:31:52;;;;;;;4.78;1.45;;;;;;;17.63;59.68;100825.16;1762524;81;21098;-60
2022/07/19 04:34:23;;;;;;;6.08;1.75;;;;;;;17.65;59.75;100822.46;1762430;81;21046;-60
2022/07/19 04:36:53;;;;;;;3.15;1.85;;;;;;;17.69;59.69;100822.88;1762703;81;21022;-60
2022/07/19 04:39:22;;;;;;;3.25;1.98;;;;;;;17.71;59.69;100823.48;1762452;81;21057;-60
2022/07/19 04:41:52;;;;;;;5.47;1.98;;;;;;;17.74;59.67;100832.17;1762668;81;21030;-60
2022/07/19 04:44:22;;;;;;;4.58;1.95;;;;;;;17.78;59.73;100828.94;1762425;81;21030;-60
2022/07/19 04:46:52;;;;;;;5.37;1.60;;;;;;;17.82;59.64;100828.77;1733041;81;21105;-61
2022/07/19 04:49:23;;;;;;;5.28;1.85;;;;;;;17.84;59.68;100823.30;1728405;83;21459;-60
2022/07/19 04:51:53;;;;;;;6.20;2.20;;;;;;;17.89;59.72;100835.91;1728326;83;21051;-60
2022/07/19 04:54:23;;;;;;;10.80;2.12;;;;;;;17.96;59.51;100826.95;1728687;83;21098;-59
2022/07/19 04:56:54;;;;;;;5.60;2.10;;;;;;;18.03;59.22;100827.70;1728122;83;21051;-60
2022/07/19 04:59:24;;;;;;;5.00;1.70;;;;;;;18.10;58.87;100830.37;1728489;83;20999;-58
2022/07/19 05:01:54;;;;;;;11.08;2.08;;;;;;;18.18;58.97;100831.96;1728289;83;21047;-60
2022/07/19 05:04:25;;;;;;;3.72;1.70;;;;;;;18.26;59.00;100839.43;1728299;83;21443;-59
2022/07/19 05:06:58;;;;;;;5.00;1.75;;;;;;;18.34;58.54;100836.31;1726697;81;20997;-59
2022/07/19 05:09:30;;;;;;;2.75;1.55;;;;;;;18.40;58.32;100840.06;1726877;83;21045;-59
2022/07/19 05:12:00;;;;;;;3.95;1.60;;;;;;;18.51;58.14;100844.78;1733930;81;21069;-61
2022/07/19 05:14:31;;;;;;;3.77;1.65;;;;;;;18.63;57.19;100842.05;1762573;81;21046;-60
2022/07/19 05:17:02;;;;;;;3.92;1.70;;;;;;;18.74;56.93;100837.59;1762461;81;21447;-60
2022/07/19 05:19:32;;;;;;;4.47;1.80;;;;;;;18.82;56.24;100838.62;1762414;81;21026;-59
2022/07/19 05:22:02;;;;;;;4.50;1.72;;;;;;;18.90;56.31;100843.84;1762562;81;21026;-59
2022/07/19 05:24:31;;;;;;;5.60;1.80;;;;;;;18.95;56.14;100842.03;1762324;81;21070;-59
2022/07/19 05:27:01;;;;;;;3.52;1.62;;;;;;;18.97;55.93;100841.79;1762396;81;21085;-59
2022/07/19 05:29:30;;;;;;;6.22;2.00;;;;;;;19.02;56.02;100841.91;1762627;81;21105;-59
2022/07/19 05:31:59;;;;;;;3.87;1.75;;;;;;;19.10;55.91;100832.36;1750500;81;21099;-59
2022/07/19 05:34:28;;;;;;;5.03;1.90;;;;;;;19.21;55.58;100842.61;1726210;83;21098;-60
2022/07/19 05:36:58;;;;;;;3.67;1.82;;;;;;;19.29;55.18;100842.23;1726468;83;21091;-60
2022/07/19 05:39:29;;;;;;;5.30;1.70;;;;;;;19.36;55.25;100844.88;1726477;83;21059;-60
2022/07/19 05:41:58;;;;;;;6.00;2.27;;;;;;;19.43;54.87;100845.59;1726185;83;21083;-60
2022/07/19 05:44:28;;;;;;;3.72;2.00;;;;;;;19.48;55.08;100846.54;1726156;83;21031;-60
2022/07/19 05:46:57;;;;;;;5.83;2.33;;;;;;;19.59;54.88;100841.55;1726417;83;21063;-60
2022/07/19 05:49:28;;;;;;;5.50;2.27;;;;;;;19.73;54.43;100847.67;1726262;83;21481;-60
2022/07/19 05:51:58;;;;;;;6.33;2.60;;;;;;;19.80;54.46;100843.36;1726150;83;21055;-60
2022/07/19 05:54:28;;;;;;;5.70;3.00;;;;;;;19.94;54.49;100850.31;1746082;81;21042;-59
2022/07/19 05:56:59;;;;;;;8.13;2.55;;;;;;;20.11;54.28;100844.78;1762444;81;21014;-60
2022/07/19 05:59:30;;;;;;;4.05;2.20;;;;;;;20.36;53.88;100848.06;1762548;81;21015;-59
2022/07/19 06:01:59;;;;;;;4.22;2.30;;;;;;;20.68;53.12;100841.94;1757876;81;21202;-61
2022/07/19 06:04:30;;;;;;;4.20;2.00;;;;;;;21.03;52.37;100845.86;1728202;83;21103;-59
2022/07/19 06:07:00;;;;;;;6.25;2.20;;;;;;;21.35;51.63;100839.94;1728477;83;21068;-60
2022/07/19 06:09:31;;;;;;;3.05;1.90;;;;;;;21.59;50.72;100843.34;1728285;83;21031;-60
2022/07/19 06:12:01;;;;;;;4.03;2.10;;;;;;;21.67;52.02;100838.70;1728237;83;21055;-59
2022/07/19 06:14:32;;;;;;;3.98;1.72;;;;;;;21.63;53.39;100839.48;1727626;81;21030;-59
2022/07/19 06:17:02;;;;;;;3.85;1.85;;;;;;;21.55;52.42;100840.78;1726425;83;21051;-59
2022/07/19 06:19:32;;;;;;;13.45;3.10;;;;;;;21.43;53.87;100833.91;1726184;83;21095;-60
2022/07/19 06:22:03;;;;;;;5.97;1.72;;;;;;;21.30;53.67;100836.23;1726330;83;20999;-59
2022/07/19 06:24:32;;;;;;;6.55;2.05;;;;;;;21.21;53.48;100838.05;1726109;83;21131;-61
2022/07/19 06:27:02;;;;;;;7.10;2.30;;;;;;;21.16;53.21;100831.56;1726325;83;21035;-61
2022/07/19 06:29:32;;;;;;;6.28;2.05;;;;;;;21.09;53.58;100833.14;1726426;83;21506;-61
2022/07/19 06:32:02;;;;;;;4.72;2.05;;;;;;;20.99;53.61;100826.02;1741749;81;21080;-59
2022/07/19 06:34:32;;;;;;;5.08;2.00;;;;;;;20.91;53.90;100825.06;1736125;81;21011;-59
2022/07/19 06:37:02;;;;;;;6.35;2.10;;;;;;;20.86;53.75;100823.60;1728227;83;21042;-61
2022/07/19 06:39:33;;;;;;;5.62;2.02;;;;;;;20.83;53.72;100823.56;1728413;83;21059;-60
2022/07/19 06:42:03;;;;;;;12.30;2.45;;;;;;;20.84;53.65;100823.02;1728167;83;21035;-60
2022/07/19 06:44:35;;;;;;;2.62;1.65;;;;;;;20.84;53.43;100817.44;1728216;83;21064;-62
2022/07/19 06:47:04;;;;;;;4.47;1.92;;;;;;;20.81;53.08;100819.34;1728303;83;21058;-59
2022/07/19 06:49:35;;;;;;;3.92;1.92;;;;;;;20.80;53.26;100813.45;1685474;85;21319;-59
2022/07/19 06:52:05;;;;;;;3.17;1.70;;;;;;;20.85;53.16;100824.70;1728078;81;21060;-59
2022/07/19 06:54:40;;;;;;;4.22;2.10;;;;;;;20.83;52.80;100818.54;1757083;81;21014;-61
2022/07/19 06:57:14;;;;;;;5.63;2.03;;;;;;;20.77;52.66;100814.80;1756217;81;21026;-61
2022/07/19 06:59:44;;;;;;;5.42;1.92;;;;;;;20.68;53.28;100821.05;1762239;81;21435;-61
2022/07/19 07:02:15;;;;;;;3.40;1.60;;;;;;;20.63;53.87;100822.37;1762247;81;21055;-59
2022/07/19 07:04:45;;;;;;;6.28;2.10;;;;;;;20.63;54.00;100826.55;1762510;81;21030;-61
2022/07/19 07:07:15;;;;;;;4.87;2.20;;;;;;;20.60;54.02;100826.50;1762567;81;21062;-60
2022/07/19 07:09:45;;;;;;;5.75;2.15;;;;;;;20.52;54.22;100822.75;1762559;81;21098;-62
2022/07/19 07:12:15;;;;;;;3.62;1.95;;;;;;;20.45;54.65;100820.68;1733739;81;21473;-61
2022/07/19 07:14:47;;;;;;;8.85;3.52;;;;;;;20.45;55.02;100827.09;1667018;86;21107;-60
2022/07/19 07:17:18;;;;;;;4.22;2.35;;;;;;;20.49;55.06;100831.06;1666963;86;21079;-60
2022/07/19 07:19:52;;;;;;;5.15;2.65;;;;;;;20.57;55.07;100833.97;1639898;87;21505;-60
2022/07/19 07:22:25;;;;;;;16.30;3.60;;;;;;;20.64;54.94;100841.61;1639829;87;21074;-60
2022/07/19 07:24:55;;;;;;;6.30;2.77;;;;;;;20.66;54.72;100837.17;1639827;87;21078;-61
2022/07/19 07:27:27;;;;;;;12.58;3.10;;;;;;;20.71;54.49;100842.83;1639882;87;21069;-59
2022/07/19 07:29:56;;;;;;;5.30;2.70;;;;;;;20.73;54.38;100844.81;1618351;87;21106;-59
2022/07/19 07:32:28;;;;;;;5.65;2.60;;;;;;;20.73;54.56;100850.37;1672323;85;21069;-59
2022/07/19 07:34:58;;;;;;;4.50;2.40;;;;;;;20.74;54.50;100852.06;1673908;85;21140;-60
2022/07/19 07:37:29;;;;;;;6.95;2.72;;;;;;;20.76;54.04;100847.08;1673759;86;21046;-60
2022/07/19 07:39:59;;;;;;;6.10;2.60;;;;;;;20.79;53.65;100857.17;1710675;83;21113;-60
2022/07/19 07:42:34;;;;;;;8.28;3.30;;;;;;;20.77;53.46;100852.40;1723850;83;21079;-60
2022/07/19 07:45:07;;;;;;;6.10;3.10;;;;;;;20.77;53.51;100848.22;1723926;83;21554;-60
2022/07/19 07:47:39;;;;;;;7.47;3.00;;;;;;;20.78;53.57;100857.42;1727836;81;21031;-61
2022/07/19 07:50:09;;;;;;;4.47;2.45;;;;;;;20.80;53.50;100855.23;1734599;82;21026;-60
2022/07/19 07:52:40;;;;;;;7.75;2.67;;;;;;;20.80;53.49;100851.89;1755291;81;21051;-61
2022/07/19 07:55:11;;;;;;;6.28;2.40;;;;;;;20.76;53.33;100855.44;1757284;82;21074;-61
2022/07/19 07:57:43;;;;;;;6.85;2.17;;;;;;;20.74;53.56;100858.48;1730153;81;21013;-62
2022/07/19 08:00:14;;;;;;;11.63;2.47;;;;;;;20.76;53.58;100861.02;1724050;83;21006;-62
2022/07/19 08:02:44;;;;;;;7.17;2.40;;;;;;;20.76;54.37;100861.02;1724555;83;21021;-62
2022/07/19 08:05:14;;;;;;;3.87;1.95;;;;;;;20.75;56.87;100864.89;1735644;82;21416;-60
2022/07/19 08:07:45;;;;;;;5.80;2.12;;;;;;;20.72;57.51;100868.19;1738894;81;21433;-61
2022/07/19 08:10:16;;;;;;;5.45;2.22;;;;;;;20.63;58.68;100869.16;1749264;81;21082;-63
2022/07/19 08:12:45;;;;;;;4.15;2.02;;;;;;;20.53;59.67;100866.20;1762743;81;21447;-61
2022/07/19 08:15:16;;;;;;;4.80;2.45;;;;;;;20.43;59.63;100872.98;1727028;81;21044;-63
2022/07/19 08:17:47;;;;;;;4.20;2.12;;;;;;;20.27;60.11;100864.88;1724229;83;21017;-63
2022/07/19 08:20:16;;;;;;;5.12;2.30;;;;;;;20.14;61.21;100865.16;1724413;83;21068;-61
2022/07/19 08:22:46;;;;;;;3.72;2.22;;;;;;;20.08;60.90;100860.04;1724819;82;20969;-63
2022/07/19 08:25:16;;;;;;;6.55;2.30;;;;;;;20.02;61.54;100858.25;1724410;82;21020;-64
2022/07/19 08:27:46;;;;;;;3.98;1.98;;;;;;;20.03;61.38;100863.27;1723647;83;21095;-61
2022/07/19 08:30:15;;;;;;;13.55;2.50;;;;;;;20.03;61.31;100858.55;1724567;81;21090;-63
2022/07/19 08:32:45;;;;;;;5.78;2.10;;;;;;;20.01;61.19;100861.28;1723909;83;21062;-63
2022/07/19 08:35:14;;;;;;;7.42;2.20;;;;;;;20.03;61.30;100861.88;1723876;83;21038;-64
2022/07/19 08:37:44;;;;;;;6.00;2.33;;;;;;;20.08;61.07;100855.87;1723854;83;21035;-62
2022/07/19 08:40:13;;;;;;;5.05;2.47;;;;;;;20.13;60.78;100854.57;1723826;83;21504;-62
2022/07/19 08:42:42;;;;;;;7.42;2.80;;;;;;;20.17;60.91;100856.34;1734442;81;21525;-61
2022/07/19 08:45:12;;;;;;;4.67;2.50;;;;;;;20.21;61.35;100856.98;1757306;81;21461;-64
2022/07/19 08:47:42;;;;;;;5.30;2.50;;;;;;;20.31;61.22;100847.13;1757314;81;21043;-63
2022/07/19 08:50:13;;;;;;;4.87;2.58;;;;;;;20.39;60.54;100845.32;1724007;83;21155;-61
2022/07/19 08:52:48;;;;;;;5.55;2.90;;;;;;;20.47;60.87;100843.00;1724400;83;21019;-62
2022/07/19 08:55:18;;;;;;;6.17;2.27;;;;;;;20.60;60.35;100845.15;1724378;83;21093;-61
2022/07/19 08:57:58;;;;;;;4.70;2.70;;;;;;;20.70;59.58;100849.49;1725000;81;21066;-62
2022/07/19 09:00:32;;;;;;;4.05;2.30;;;;;;;20.81;59.43;100843.02;1723293;81;21043;-62
2022/07/19 09:03:06;;;;;;;7.17;3.10;;;;;;;20.94;58.87;100841.82;1745276;81;21137;-62
2022/07/19 09:05:36;;;;;;;5.50;2.25;;;;;;;21.04;58.35;100841.42;1741551;81;21034;-61
2022/07/19 09:08:15;;;;;;;8.85;3.33;;;;;;;21.12;57.65;100841.53;1737872;81;21443;-63
2022/07/19 09:11:14;;;;;;;6.28;2.20;;;;;;;21.18;57.24;100839.95;1731543;83;21447;-64
2022/07/19 09:13:19;;;;;;;7.58;2.30;;;;;;;21.24;57.25;100835.33;1727396;83;21479;-63
2022/07/19 09:15:54;;;;;;;6.58;2.12;;;;;;;21.28;56.84;100837.05;1734927;81;21078;-63
2022/07/19 09:18:27;;;;;;;3.62;2.35;;;;;;;21.25;57.01;100838.96;1762834;81;21065;-64
2022/07/19 09:21:08;;;;;;;5.42;2.10;;;;;;;21.21;58.84;100839.99;1763107;81;21054;-64
2022/07/19 09:23:50;;;;;;;6.00;2.50;;;;;;;21.12;59.38;100842.38;1718017;83;21095;-64
2022/07/19 09:26:19;;;;;;;4.40;2.10;;;;;;;21.04;59.87;100844.20;1718861;83;21557;-65
2022/07/19 09:28:48;;;;;;;5.70;2.25;;;;;;;20.97;59.29;100841.31;1718872;83;21082;-64
2022/07/19 09:31:20;;;;;;;5.97;2.50;;;;;;;20.86;59.07;100848.12;1719478;83;21055;-64
2022/07/19 09:33:52;;;;;;;4.87;3.08;;;;;;;20.76;60.33;100844.30;1723774;83;21472;-65
2022/07/19 09:36:22;;;;;;;4.58;2.60;;;;;;;20.69;62.41;100854.77;1717159;83;21084;-65
2022/07/19 09:38:53;;;;;;;5.97;2.70;;;;;;;20.63;64.02;100847.43;1693323;85;21482;-65
2022/07/19 09:41:23;;;;;;;5.87;2.60;;;;;;;20.55;65.52;100852.87;1692156;85;21488;-63
2022/07/19 09:44:01;;;;;;;5.05;2.70;;;;;;;20.45;66.94;100838.78;1688664;85;21079;-66
2022/07/19 09:46:39;;;;;;;4.17;2.40;;;;;;;20.39;68.16;100845.32;1688648;85;21059;-62
2022/07/19 09:49:17;;;;;;;5.28;2.90;;;;;;;20.31;68.67;100845.19;1689539;84;21059;-62
2022/07/19 09:51:50;;;;;;;5.17;2.98;;;;;;;20.25;69.53;100847.58;1713356;83;21493;-62
2022/07/19 09:54:22;;;;;;;6.25;2.58;;;;;;;20.29;70.62;100840.97;1715312;83;21058;-67
2022/07/19 09:56:53;;;;;;;3.47;2.30;;;;;;;20.36;71.08;100842.49;1710886;83;21038;-64
2022/07/19 09:59:23;;;;;;;3.72;2.50;;;;;;;20.43;71.42;100831.23;1692789;85;21081;-64
2022/07/19 10:01:54;;;;;;;5.08;2.35;;;;;;;20.50;70.77;100835.53;1691253;85;21104;-63
2022/07/19 10:04:30;;;;;;;4.55;2.80;;;;;;;20.52;69.59;100826.92;1691194;85;21107;-63
2022/07/19 10:07:06;;;;;;;4.87;2.00;;;;;;;20.56;69.77;100836.46;1670609;85;21224;-64
2022/07/19 10:09:36;;;;;;;1.80;1.55;;;;;;;20.61;68.63;100823.17;1692105;85;21899;-63
2022/07/19 10:12:10;;;;;;;2.15;1.67;;;;;;;20.66;67.36;100824.64;1692357;85;21816;-62
2022/07/19 10:14:40;;;;;;;2.67;1.57;;;;;;;20.75;66.87;100821.17;1692332;85;21076;-62
2022/07/19 10:17:32;;;;;;;6.40;2.37;;;;;;;20.86;66.13;100816.63;1640825;86;21175;-63
2022/07/19 10:20:06;;;;;;;5.25;1.92;;;;;;;20.92;66.35;100811.44;1636101;87;21154;-65
2022/07/19 10:22:39;;;;;;;7.42;2.65;;;;;;;21.09;66.48;100813.63;1653740;86;21099;-63
2022/07/19 10:25:14;;;;;;;3.80;1.80;;;;;;;21.23;64.63;100802.98;1663599;86;21120;-63
2022/07/19 10:27:51;;;;;;;2.75;1.67;;;;;;;21.37;64.65;100799.26;1659745;86;21602;-60
2022/07/19 10:30:25;;;;;;;2.08;1.50;;;;;;;21.50;63.25;100799.73;1631139;88;21106;-64
2022/07/19 10:32:56;;;;;;;3.20;1.50;;;;;;;21.57;61.34;100790.33;1666208;85;21125;-64
2022/07/19 10:35:30;;;;;;;3.37;1.72;;;;;;;21.57;61.33;100790.33;1676892;85;21060;-64
2022/07/19 10:38:08;;;;;;;3.17;1.98;;;;;;;21.55;60.84;100789.20;1673609;85;21148;-63
2022/07/19 10:40:48;;;;;;;4.30;2.27;;;;;;;21.55;60.65;100783.63;1678556;85;21076;-62
2022/07/19 10:43:21;;;;;;;5.05;2.10;;;;;;;21.60;60.17;100788.41;1699039;84;21093;-63
2022/07/19 10:46:02;;;;;;;3.40;1.85;;;;;;;21.65;60.12;100778.16;1673776;85;21100;-62
2022/07/19 10:48:52;;;;;;;3.83;1.92;;;;;;;21.72;59.67;100777.40;1680654;85;21069;-64
2022/07/19 10:51:36;;;;;;;3.22;1.80;;;;;;;21.75;59.22;100772.69;1681706;85;21555;-63
2022/07/19 10:54:07;;;;;;;2.08;1.60;;;;;;;21.75;58.95;100769.91;1708390;83;21040;-64
2022/07/19 10:56:44;;;;;;;2.75;1.75;;;;;;;21.77;58.52;100771.88;1719118;83;21031;-64
2022/07/19 10:59:17;;;;;;;4.53;1.47;;;;;;;21.79;58.19;100768.27;1677614;85;21044;-63
2022/07/19 11:01:56;;;;;;;2.52;1.62;;;;;;;21.86;57.74;100767.22;1694604;84;21063;-63
2022/07/19 11:04:31;;;;;;;1.95;1.60;;;;;;;21.89;56.85;100759.72;1691668;84;21017;-64
2022/07/19 11:07:19;;;;;;;3.52;2.10;;;;;;;21.96;57.15;100754.76;1691967;85;21072;-64
2022/07/19 11:09:55;;;;;;;3.77;1.82;;;;;;;22.04;57.00;100755.15;1691383;84;21108;-65
2022/07/19 11:12:30;;;;;;;2.55;1.60;;;;;;;22.08;56.42;100752.12;1691483;85;21080;-63
2022/07/19 11:15:02;;;;;;;6.92;2.22;;;;;;;22.13;56.72;100759.17;1691796;84;21048;-63
2022/07/19 11:17:35;;;;;;;4.12;1.80;;;;;;;22.25;56.08;100748.38;1689607;84;21092;-63
2022/07/19 11:20:11;;;;;;;4.03;2.10;;;;;;;22.35;55.90;100756.28;1669157;85;21553;-64
2022/07/19 11:22:44;;;;;;;7.25;1.95;;;;;;;22.42;55.58;100749.08;1663153;86;21106;-63
2022/07/19 11:25:15;;;;;;;3.15;2.20;;;;;;;22.46;55.57;100745.48;1663225;86;21051;-65
2022/07/19 11:27:47;;;;;;;6.05;4.78;;;;;;;22.55;55.35;100747.22;1663245;86;21134;-62
2022/07/19 11:30:17;;;;;;;7.17;5.20;;;;;;;22.63;55.43;100750.06;1662952;86;21114;-63
2022/07/19 11:32:56;;;;;;;5.00;3.15;;;;;;;22.71;55.28;100749.00;1655791;85;21507;-64
2022/07/19 11:35:25;;;;;;;4.70;2.15;;;;;;;22.78;54.61;100747.40;1689981;85;21742;-65
2022/07/19 11:37:56;;;;;;;4.08;2.50;;;;;;;22.83;54.08;100746.06;1690222;84;21420;-64
2022/07/19 11:40:27;;;;;;;3.10;1.90;;;;;;;22.83;53.95;100741.03;1689994;85;21059;-63
2022/07/19 11:42:57;;;;;;;4.08;2.00;;;;;;;22.78;54.36;100744.61;1689623;84;21035;-62
2022/07/19 11:45:28;;;;;;;3.70;2.20;;;;;;;22.74;54.15;100746.22;1687342;85;21094;-62